Time;durP1;ratioP1;P1;durP2;ratioP2;P2;SDS_P1;SDS_P2;PMS_P1;PMS_P2;Temp;Humidity;BMP_temperature;BMP_pressure;BME280_temperature;BME280_humidity;BME280_pressure;Samples;Min_cycle;Max_cycle;Signal;HPM_P1;HPM_P2
2023/07/25 00:01:17;;;;;;;3.80;1.48;;;13.10;99.90;;;;;;6252255;22;20462;-95
2023/07/25 00:03:45;;;;;;;5.05;1.83;;;13.10;99.90;;;;;;6227200;22;20093;-95
2023/07/25 00:06:11;;;;;;;5.30;1.70;;;13.10;99.90;;;;;;6252424;22;20026;-95
2023/07/25 00:08:37;;;;;;;4.80;1.70;;;13.10;99.90;;;;;;6252094;22;20067;-95
2023/07/25 00:11:03;;;;;;;4.25;1.20;;;13.10;99.90;;;;;;6227169;22;20086;-95
2023/07/25 00:13:29;;;;;;;2.00;1.15;;;13.00;99.90;;;;;;6250671;22;20012;-95
2023/07/25 00:15:55;;;;;;;3.78;1.27;;;13.00;99.90;;;;;;6251587;22;20043;-95
2023/07/25 00:18:20;;;;;;;2.83;1.20;;;13.00;99.90;;;;;;6251448;22;20011;-94
2023/07/25 00:20:46;;;;;;;3.60;1.23;;;13.00;99.90;;;;;;6225664;22;20014;-96
2023/07/25 00:23:12;;;;;;;4.72;1.35;;;13.00;99.90;;;;;;6227046;22;20461;-95
2023/07/25 00:25:38;;;;;;;4.10;1.63;;;13.00;99.90;;;;;;6251803;22;20131;-95
2023/07/25 00:28:04;;;;;;;4.03;1.20;;;13.00;99.90;;;;;;6250885;22;20108;-95
2023/07/25 00:30:30;;;;;;;3.65;1.48;;;13.00;99.90;;;;;;6251758;22;20069;-95
2023/07/25 00:32:55;;;;;;;2.67;1.10;;;13.00;99.90;;;;;;6250895;22;20022;-95
2023/07/25 00:35:21;;;;;;;3.65;1.20;;;13.00;99.90;;;;;;6251933;22;20035;-96
2023/07/25 00:37:47;;;;;;;3.70;1.30;;;13.00;99.90;;;;;;6225928;22;20677;-95
2023/07/25 00:40:13;;;;;;;3.90;1.13;;;12.90;99.90;;;;;;6252952;22;20023;-95
2023/07/25 00:42:39;;;;;;;4.05;1.20;;;12.40;99.90;;;;;;6251262;22;20068;-94
2023/07/25 00:45:05;;;;;;;4.93;1.65;;;13.00;99.90;;;;;;6226199;22;20047;-94
2023/07/25 00:47:32;;;;;;;3.67;1.40;;;13.00;99.90;;;;;;6224762;22;20383;-96
2023/07/25 00:49:58;;;;;;;3.90;1.20;;;12.90;99.90;;;;;;6250571;22;20693;-96
2023/07/25 00:52:26;;;;;;;3.78;1.33;;;12.90;99.90;;;;;;6223110;22;20015;-94
2023/07/25 00:54:52;;;;;;;3.55;1.17;;;12.90;99.90;;;;;;6225333;22;20055;-95
2023/07/25 00:57:19;;;;;;;4.40;1.70;;;12.90;99.90;;;;;;6226459;22;20023;-96
2023/07/25 00:59:45;;;;;;;7.75;1.70;;;12.90;99.90;;;;;;6251500;22;20011;-95
2023/07/25 01:02:13;;;;;;;3.20;1.30;;;12.90;99.90;;;;;;6277716;22;20046;-95
2023/07/25 01:04:39;;;;;;;3.50;1.08;;;12.90;99.90;;;;;;6251613;22;20018;-96
2023/07/25 01:07:06;;;;;;;3.97;1.23;;;13.00;99.90;;;;;;6250337;22;20011;-91
2023/07/25 01:09:36;;;;;;;2.33;1.33;;;12.80;99.90;;;;;;6274682;22;20050;-91
2023/07/25 01:12:04;;;;;;;3.45;1.45;;;;;;;;;;6249161;22;20047;-91
2023/07/25 01:14:31;;;;;;;4.65;1.27;;;12.90;99.90;;;;;;6224165;22;20042;-92
2023/07/25 01:17:17;;;;;;;;;;;12.80;99.90;;;;;;6224315;22;20012;-92
2023/07/25 01:19:46;;;;;;;4.15;1.70;;;12.80;99.90;;;;;;6222391;22;19915;-91
2023/07/25 01:22:12;;;;;;;3.40;1.15;;;12.80;99.90;;;;;;6199427;22;20015;-91
2023/07/25 01:24:44;;;;;;;4.28;0.93;;;12.80;99.90;;;;;;6198256;22;20015;-91
2023/07/25 01:27:10;;;;;;;7.40;1.23;;;12.80;99.90;;;;;;6249202;22;20012;-91
2023/07/25 01:29:36;;;;;;;2.47;1.17;;;12.80;99.90;;;;;;6198562;22;20082;-91
2023/07/25 01:32:02;;;;;;;4.40;1.27;;;12.80;99.90;;;;;;6174255;22;20039;-91
2023/07/25 01:34:28;;;;;;;3.72;1.20;;;12.80;99.90;;;;;;6174327;22;20007;-91
2023/07/25 01:36:54;;;;;;;2.95;1.23;;;12.80;99.90;;;;;;6249469;22;20667;-91
2023/07/25 01:39:19;;;;;;;4.57;1.30;;;12.80;99.90;;;;;;6223710;22;20015;-91
2023/07/25 01:41:45;;;;;;;4.80;1.35;;;12.80;99.90;;;;;;6198641;22;20177;-91
2023/07/25 01:44:11;;;;;;;3.47;1.38;;;12.80;99.90;;;;;;6224242;22;20446;-91
2023/07/25 01:46:40;;;;;;;2.60;1.10;;;12.80;99.90;;;;;;6224095;22;20069;-91
2023/07/25 01:49:08;;;;;;;3.70;1.20;;;12.90;99.90;;;;;;6248865;22;20016;-91
2023/07/25 01:51:34;;;;;;;4.50;1.23;;;12.90;99.90;;;;;;6248067;22;20034;-91
2023/07/25 01:54:00;;;;;;;2.70;1.40;;;12.90;99.90;;;;;;6198817;22;20019;-90
2023/07/25 01:56:25;;;;;;;4.53;1.38;;;13.00;99.90;;;;;;6198756;22;20011;-91
2023/07/25 01:58:51;;;;;;;6.20;1.45;;;13.10;99.90;;;;;;6224019;22;20119;-92
2023/07/25 02:01:17;;;;;;;4.50;1.40;;;13.10;99.90;;;;;;6173629;22;20011;-91
2023/07/25 02:03:43;;;;;;;3.75;1.52;;;13.10;99.90;;;;;;6223365;22;20705;-91
2023/07/25 02:06:08;;;;;;;5.10;1.50;;;13.10;99.90;;;;;;6198412;22;20602;-91
2023/07/25 02:08:34;;;;;;;2.50;1.38;;;13.20;99.90;;;;;;6198460;22;20443;-91
2023/07/25 02:11:00;;;;;;;3.72;1.42;;;13.20;99.90;;;;;;6223438;22;20343;-91
2023/07/25 02:13:26;;;;;;;4.75;1.23;;;13.30;99.90;;;;;;6223292;22;20023;-90
2023/07/25 02:15:52;;;;;;;4.13;1.27;;;13.30;99.90;;;;;;6223304;22;20757;-91
2023/07/25 02:18:17;;;;;;;4.18;1.38;;;13.30;99.90;;;;;;6222920;22;20102;-91
2023/07/25 02:20:43;;;;;;;6.35;1.80;;;13.30;99.90;;;;;;6196752;22;20011;-91
2023/07/25 02:23:12;;;;;;;5.47;1.50;;;13.10;99.90;;;;;;6196346;22;20014;-91
2023/07/25 02:25:37;;;;;;;3.83;1.77;;;13.40;99.90;;;;;;6175214;22;20015;-91
2023/07/25 02:28:03;;;;;;;4.95;1.35;;;13.40;99.90;;;;;;6198267;22;20393;-92
2023/07/25 02:30:29;;;;;;;3.58;1.45;;;13.40;99.90;;;;;;6198762;22;20051;-89
2023/07/25 02:32:55;;;;;;;4.25;1.20;;;13.40;99.90;;;;;;6197854;22;20023;-88
2023/07/25 02:35:20;;;;;;;6.43;1.33;;;13.50;99.90;;;;;;6199099;22;20016;-91
2023/07/25 02:37:46;;;;;;;5.45;1.55;;;13.50;99.90;;;;;;6199286;22;20090;-90
2023/07/25 02:40:12;;;;;;;5.15;1.50;;;13.60;99.90;;;;;;6250696;22;20018;-90
2023/07/25 02:42:40;;;;;;;5.63;1.58;;;13.70;99.90;;;;;;6201296;22;20012;-90
2023/07/25 02:45:06;;;;;;;4.50;1.30;;;13.60;99.90;;;;;;6226436;22;20486;-89
2023/07/25 02:47:32;;;;;;;4.95;1.48;;;13.70;99.90;;;;;;6200458;22;20015;-90
2023/07/25 02:49:58;;;;;;;5.50;1.67;;;13.60;99.90;;;;;;6200142;22;20026;-89
2023/07/25 02:52:24;;;;;;;4.13;1.52;;;13.60;99.90;;;;;;6194471;23;20019;-90
2023/07/25 02:54:49;;;;;;;3.90;1.40;;;13.20;99.90;;;;;;6170493;23;20332;-91
2023/07/25 02:57:15;;;;;;;4.75;1.67;;;13.60;99.90;;;;;;6145400;23;20016;-90
2023/07/25 02:59:41;;;;;;;5.78;1.67;;;13.60;99.90;;;;;;6195578;23;20062;-91
2023/07/25 03:02:07;;;;;;;3.50;1.52;;;13.60;99.90;;;;;;6170004;23;20012;-91
2023/07/25 03:04:32;;;;;;;3.00;1.52;;;13.60;99.90;;;;;;6171126;23;20074;-90
2023/07/25 03:06:58;;;;;;;7.35;1.60;;;13.60;99.90;;;;;;6169683;23;20841;-90
2023/07/25 03:09:24;;;;;;;5.85;1.60;;;13.10;99.90;;;;;;6146154;23;20016;-90
2023/07/25 03:11:49;;;;;;;6.15;1.50;;;13.60;99.90;;;;;;6145909;23;20018;-90
2023/07/25 03:14:15;;;;;;;4.88;1.48;;;13.60;99.90;;;;;;6170688;23;20336;-91
2023/07/25 03:16:41;;;;;;;4.85;1.40;;;13.60;99.90;;;;;;6194166;23;20039;-91
2023/07/25 03:19:06;;;;;;;4.38;1.40;;;13.70;99.90;;;;;;6170214;23;20008;-89
2023/07/25 03:21:32;;;;;;;2.85;1.02;;;13.70;99.90;;;;;;6194658;23;20012;-90
2023/07/25 03:23:58;;;;;;;4.70;1.52;;;13.60;99.90;;;;;;6194698;23;20070;-90
2023/07/25 03:26:24;;;;;;;4.93;1.48;;;13.60;99.90;;;;;;6146072;23;20034;-88
2023/07/25 03:28:49;;;;;;;6.25;1.50;;;13.50;99.90;;;;;;6170455;23;20023;-90
2023/07/25 03:31:15;;;;;;;4.13;1.40;;;13.40;99.90;;;;;;6145567;23;20016;-90
2023/07/25 03:33:41;;;;;;;3.30;1.48;;;13.40;99.90;;;;;;6170353;23;20074;-89
2023/07/25 03:36:07;;;;;;;4.72;1.20;;;13.30;99.90;;;;;;6169517;23;20328;-89
2023/07/25 03:38:33;;;;;;;3.58;1.55;;;13.30;99.90;;;;;;6194789;23;20012;-90
2023/07/25 03:40:58;;;;;;;3.15;1.25;;;13.30;99.90;;;;;;6170079;23;20004;-89
2023/07/25 03:43:24;;;;;;;3.30;1.23;;;13.30;99.90;;;;;;6194690;23;20061;-90
2023/07/25 03:45:50;;;;;;;4.93;1.38;;;13.20;99.90;;;;;;6170138;23;20012;-90
2023/07/25 03:48:16;;;;;;;4.65;1.58;;;13.20;99.90;;;;;;6145481;23;20016;-91
2023/07/25 03:50:41;;;;;;;8.75;1.30;;;13.20;99.90;;;;;;6194385;23;20436;-91
2023/07/25 03:53:07;;;;;;;2.95;1.38;;;13.20;99.90;;;;;;6169686;23;20027;-90
2023/07/25 03:55:36;;;;;;;3.88;1.50;;;13.20;99.90;;;;;;6194799;23;20584;-91
2023/07/25 03:58:01;;;;;;;3.85;1.30;;;13.20;99.90;;;;;;6170814;23;20012;-91
2023/07/25 04:00:27;;;;;;;4.72;1.20;;;13.30;99.90;;;;;;6170321;23;20062;-90
2023/07/25 04:02:53;;;;;;;5.60;1.20;;;13.30;99.90;;;;;;6170626;23;20012;-90
2023/07/25 04:05:18;;;;;;;4.97;1.65;;;13.30;99.90;;;;;;6194600;23;20016;-94
2023/07/25 04:07:44;;;;;;;3.72;1.30;;;13.30;99.90;;;;;;6169056;23;20012;-93
2023/07/25 04:10:10;;;;;;;3.92;1.95;;;13.30;99.90;;;;;;6220170;23;20344;-93
2023/07/25 04:12:36;;;;;;;5.18;1.63;;;13.30;99.90;;;;;;6195360;23;20016;-94
2023/07/25 04:15:01;;;;;;;4.18;1.33;;;13.30;99.90;;;;;;6170143;23;20066;-92
2023/07/25 04:17:27;;;;;;;6.88;1.65;;;13.30;99.90;;;;;;6170124;23;20012;-93
2023/07/25 04:19:53;;;;;;;4.22;1.33;;;13.30;99.90;;;;;;6170022;23;20463;-93
2023/07/25 04:22:18;;;;;;;2.85;1.30;;;13.40;99.90;;;;;;6145053;23;20012;-93
2023/07/25 04:24:44;;;;;;;5.30;1.10;;;13.40;99.90;;;;;;6170183;23;20012;-93
2023/07/25 04:27:10;;;;;;;4.78;1.88;;;13.40;99.90;;;;;;6170066;23;20016;-93
2023/07/25 04:29:36;;;;;;;5.05;1.90;;;13.40;99.90;;;;;;6169487;23;20332;-94
2023/07/25 04:32:01;;;;;;;4.32;1.42;;;13.40;99.90;;;;;;6170242;23;20656;-93
2023/07/25 04:34:27;;;;;;;6.13;1.60;;;13.40;99.90;;;;;;6194210;23;20008;-94
2023/07/25 04:36:53;;;;;;;3.22;1.40;;;13.40;99.90;;;;;;6169153;23;20047;-94
2023/07/25 04:39:18;;;;;;;7.53;1.58;;;13.40;99.90;;;;;;6168245;23;20008;-95
2023/07/25 04:41:44;;;;;;;4.72;2.13;;;13.50;99.90;;;;;;6168762;23;20093;-94
2023/07/25 04:44:11;;;;;;;4.93;1.83;;;13.50;99.90;;;;;;6218542;23;20016;-95
2023/07/25 04:46:36;;;;;;;4.67;1.53;;;13.50;99.90;;;;;;6193974;23;20012;-94
2023/07/25 04:49:02;;;;;;;4.50;1.45;;;13.60;99.90;;;;;;6218776;23;20384;-94
2023/07/25 04:51:28;;;;;;;6.10;1.48;;;13.60;99.90;;;;;;6192634;22;20651;-94
2023/07/25 04:53:54;;;;;;;3.85;1.58;;;13.70;99.90;;;;;;6168547;23;20309;-95
2023/07/25 04:56:19;;;;;;;3.95;1.60;;;13.60;99.90;;;;;;6220537;22;20532;-94
2023/07/25 04:58:47;;;;;;;4.10;1.60;;;13.70;99.90;;;;;;6198319;22;20031;-94
2023/07/25 05:01:12;;;;;;;;;;;13.80;99.90;;;;;;6198974;22;20094;-94
2023/07/25 05:03:38;;;;;;;2.90;1.42;;;13.90;99.90;;;;;;6223772;22;19996;-95
2023/07/25 05:06:04;;;;;;;5.28;1.45;;;14.00;99.90;;;;;;6223998;22;20090;-93
2023/07/25 05:08:29;;;;;;;6.25;1.60;;;14.20;99.90;;;;;;6224246;22;20069;-94
2023/07/25 05:10:55;;;;;;;3.65;1.30;;;14.40;99.90;;;;;;6199064;22;20016;-94
2023/07/25 05:13:21;;;;;;;3.58;1.27;;;14.80;99.90;;;;;;6224349;22;20015;-94
2023/07/25 05:15:47;;;;;;;3.58;1.20;;;14.70;99.90;;;;;;6224265;22;20070;-93
2023/07/25 05:18:13;;;;;;;3.85;1.30;;;14.80;99.90;;;;;;6199397;22;20577;-94
2023/07/25 05:20:38;;;;;;;3.50;1.00;;;14.80;99.90;;;;;;6198573;22;20015;-93
2023/07/25 05:23:06;;;;;;;6.30;1.20;;;14.80;99.90;;;;;;6198215;22;20008;-94
2023/07/25 05:25:31;;;;;;;4.00;1.25;;;14.80;99.90;;;;;;6249940;22;20061;-94
2023/07/25 05:27:58;;;;;;;4.15;1.33;;;14.90;99.90;;;;;;6199373;22;20054;-94
2023/07/25 05:30:23;;;;;;;3.95;1.00;;;14.90;99.90;;;;;;6224640;22;20011;-93
2023/07/25 05:32:49;;;;;;;1.95;0.68;;;14.90;99.90;;;;;;6198527;22;20018;-93
2023/07/25 05:35:15;;;;;;;4.03;1.20;;;15.00;99.90;;;;;;6175169;22;20435;-93
2023/07/25 05:37:41;;;;;;;3.42;0.90;;;15.10;99.90;;;;;;6247924;22;20042;-93
2023/07/25 05:40:07;;;;;;;3.47;1.23;;;15.10;99.90;;;;;;6198878;22;20012;-93
2023/07/25 05:42:33;;;;;;;6.47;1.33;;;15.10;99.90;;;;;;6196050;22;20016;-93
2023/07/25 05:45:00;;;;;;;1.80;0.88;;;15.20;99.90;;;;;;6174169;22;20034;-94
2023/07/25 05:47:27;;;;;;;3.83;1.10;;;15.30;99.90;;;;;;6223852;22;20069;-95
2023/07/25 05:49:52;;;;;;;4.07;1.25;;;15.30;99.90;;;;;;6249092;22;20018;-94
2023/07/25 05:52:18;;;;;;;4.05;1.17;;;15.30;99.90;;;;;;6209724;23;20395;-94
2023/07/25 05:54:44;;;;;;;5.40;1.13;;;15.40;99.90;;;;;;6168445;23;20094;-94
2023/07/25 05:57:10;;;;;;;4.28;1.05;;;15.60;99.90;;;;;;6168442;23;20046;-93
2023/07/25 05:59:36;;;;;;;5.38;1.02;;;16.10;99.90;;;;;;6192718;23;20499;-93
2023/07/25 06:02:03;;;;;;;2.10;0.98;;;16.90;99.90;;;;;;6168565;23;20012;-94
2023/07/25 06:04:30;;;;;;;5.18;1.00;;;17.80;99.90;;;;;;6168879;23;20008;-93
2023/07/25 06:06:55;;;;;;;3.25;0.90;;;18.70;99.90;;;;;;6189958;23;20016;-93
2023/07/25 06:09:21;;;;;;;3.88;0.68;;;19.30;99.90;;;;;;6166402;23;20027;-94
2023/07/25 06:11:47;;;;;;;2.15;0.60;;;20.20;99.90;;;;;;6190670;23;20435;-93
2023/07/25 06:14:12;;;;;;;3.72;0.90;;;20.20;99.90;;;;;;6165653;23;20650;-92
2023/07/25 06:16:38;;;;;;;4.60;1.25;;;21.50;99.90;;;;;;6166306;23;20020;-92
2023/07/25 06:19:04;;;;;;;3.30;0.68;;;22.00;99.90;;;;;;6191688;23;20012;-93
2023/07/25 06:21:30;;;;;;;4.40;0.90;;;22.70;99.90;;;;;;6167235;23;20012;-93
2023/07/25 06:23:56;;;;;;;4.05;0.90;;;22.60;99.90;;;;;;6167571;23;20008;-92
2023/07/25 06:26:21;;;;;;;4.18;0.98;;;23.00;99.90;;;;;;6192809;23;20106;-93
2023/07/25 06:28:47;;;;;;;4.68;0.68;;;;;;;;;;6168952;23;20070;-92
2023/07/25 06:31:13;;;;;;;2.27;0.77;;;23.20;99.90;;;;;;6193733;23;20067;-92
2023/07/25 06:33:39;;;;;;;3.10;0.98;;;23.40;99.90;;;;;;6169352;23;20016;-92
2023/07/25 06:36:04;;;;;;;1.88;0.60;;;23.30;99.90;;;;;;6168661;23;20016;-92
2023/07/25 06:38:30;;;;;;;3.22;0.77;;;23.30;99.90;;;;;;6193391;23;20050;-93
2023/07/25 06:40:56;;;;;;;2.50;0.77;;;23.30;99.90;;;;;;6168815;23;20091;-92
2023/07/25 06:43:22;;;;;;;3.75;0.95;;;23.60;99.90;;;;;;6194295;23;20048;-92
2023/07/25 06:45:50;;;;;;;1.93;0.50;;;23.90;99.90;;;;;;6168368;23;20019;-92
2023/07/25 06:48:16;;;;;;;4.65;0.60;;;24.10;99.90;;;;;;6168881;23;20066;-92
2023/07/25 06:50:42;;;;;;;2.80;0.60;;;24.20;99.90;;;;;;6168686;23;20016;-92
2023/07/25 06:53:08;;;;;;;2.50;0.60;;;24.30;99.90;;;;;;6185101;23;20023;-93
2023/07/25 06:55:34;;;;;;;1.63;0.50;;;24.00;99.90;;;;;;6193711;23;20017;-92
2023/07/25 06:58:01;;;;;;;6.13;0.60;;;23.50;99.90;;;;;;6193729;23;20016;-92
2023/07/25 07:00:27;;;;;;;1.98;0.60;;;23.80;99.90;;;;;;6194206;23;20012;-92
2023/07/25 07:02:54;;;;;;;1.30;0.40;;;23.30;99.90;;;;;;6168647;23;20321;-93
2023/07/25 07:05:20;;;;;;;3.78;0.80;;;23.50;99.90;;;;;;6218331;23;20052;-91
2023/07/25 07:07:46;;;;;;;1.65;0.40;;;23.60;99.90;;;;;;6193030;23;20019;-93
2023/07/25 07:10:11;;;;;;;2.10;0.60;;;23.70;99.90;;;;;;6193926;23;20063;-92
2023/07/25 07:12:46;;;;;;;1.85;0.50;;;24.00;99.90;;;;;;6194845;23;20058;-95
2023/07/25 07:15:12;;;;;;;4.70;0.40;;;23.60;96.60;;;;;;6195643;23;20031;-93
2023/07/25 07:17:38;;;;;;;2.83;0.60;;;22.80;99.90;;;;;;6195529;23;20043;-93
2023/07/25 07:20:07;;;;;;;3.30;0.40;;;21.80;99.90;;;;;;6195622;23;20016;-93
2023/07/25 07:22:33;;;;;;;2.42;0.50;;;21.70;99.90;;;;;;6169624;23;20440;-93
2023/07/25 07:24:59;;;;;;;1.50;0.47;;;21.80;99.90;;;;;;6195627;23;20053;-93
2023/07/25 07:27:25;;;;;;;3.22;0.60;;;22.00;99.90;;;;;;6170395;23;20364;-93
2023/07/25 07:29:52;;;;;;;1.58;0.60;;;22.40;99.90;;;;;;6170501;23;20043;-92
2023/07/25 07:32:18;;;;;;;2.58;0.40;;;23.00;99.90;;;;;;6194843;23;20039;-92
2023/07/25 07:34:44;;;;;;;2.30;0.40;;;23.80;99.90;;;;;;6220503;23;20095;-92
2023/07/25 07:37:10;;;;;;;1.45;0.40;;;23.90;99.90;;;;;;6194542;23;20067;-92
2023/07/25 07:39:38;;;;;;;1.97;0.40;;;24.20;99.90;;;;;;6194797;23;20016;-93
2023/07/25 07:42:04;;;;;;;1.70;0.45;;;23.70;99.90;;;;;;6171258;23;20020;-93
2023/07/25 07:44:33;;;;;;;3.13;0.60;;;23.80;99.40;;;;;;6169999;23;20091;-94
2023/07/25 07:47:02;;;;;;;1.35;0.50;;;23.50;93.60;;;;;;6211593;23;20072;-94
2023/07/25 07:49:37;;;;;;;1.20;0.30;;;23.00;93.00;;;;;;6219198;23;20020;-93
2023/07/25 07:52:03;;;;;;;2.15;0.30;;;21.90;92.70;;;;;;6197981;22;20027;-94
2023/07/25 07:54:58;;;;;;;1.20;0.40;;;21.80;99.10;;;;;;6223182;22;20038;-93
2023/07/25 07:57:23;;;;;;;2.72;0.40;;;21.70;98.80;;;;;;6221849;22;20545;-94
2023/07/25 07:59:49;;;;;;;1.50;0.50;;;21.90;98.00;;;;;;6247521;22;20051;-93
2023/07/25 08:02:15;;;;;;;7.13;0.77;;;21.50;96.60;;;;;;6247612;22;20051;-93
2023/07/25 08:04:40;;;;;;;3.85;0.70;;;21.80;99.30;;;;;;6222661;22;20016;-93
2023/07/25 08:07:06;;;;;;;1.45;0.40;;;22.20;99.90;;;;;;6223663;22;20015;-94
2023/07/25 08:09:35;;;;;;;2.15;0.70;;;21.60;98.40;;;;;;6199583;22;20022;-92
2023/07/25 08:12:03;;;;;;;2.97;0.70;;;20.50;99.90;;;;;;6199755;22;20012;-92
2023/07/25 08:14:29;;;;;;;2.10;0.55;;;20.00;99.90;;;;;;6176084;22;20011;-93
2023/07/25 08:16:54;;;;;;;3.63;0.80;;;19.60;99.90;;;;;;6199620;22;20762;-93
2023/07/25 08:19:20;;;;;;;4.18;0.65;;;19.40;99.90;;;;;;6199478;22;20086;-93
2023/07/25 08:21:46;;;;;;;3.13;0.68;;;19.40;99.90;;;;;;6171697;22;20252;-92
2023/07/25 08:24:12;;;;;;;2.75;0.47;;;19.40;99.90;;;;;;6249771;22;20409;-93
2023/07/25 08:26:37;;;;;;;1.55;0.43;;;19.40;99.90;;;;;;6199514;22;20052;-92
2023/07/25 08:29:03;;;;;;;2.30;0.40;;;19.80;99.90;;;;;;6199279;22;20012;-93
2023/07/25 08:31:30;;;;;;;2.30;0.52;;;19.70;99.90;;;;;;6224287;22;20008;-93
2023/07/25 08:33:56;;;;;;;2.00;0.57;;;19.40;99.90;;;;;;6174982;22;20012;-92
2023/07/25 08:36:22;;;;;;;1.70;0.50;;;19.00;99.90;;;;;;6249443;22;20030;-93
2023/07/25 08:38:50;;;;;;;2.65;0.47;;;18.70;99.90;;;;;;6224426;22;20054;-93
2023/07/25 08:41:25;;;;;;;2.33;0.60;;;19.00;99.90;;;;;;6225463;22;20023;-93
2023/07/25 08:43:53;;;;;;;2.60;0.57;;;19.30;99.90;;;;;;6250207;22;20016;-94
2023/07/25 08:46:20;;;;;;;3.50;0.50;;;19.40;99.90;;;;;;6224539;22;20316;-93
2023/07/25 08:48:47;;;;;;;;;;;19.60;99.90;;;;;;6225442;22;20347;-93
2023/07/25 08:51:19;;;;;;;2.85;0.70;;;19.00;99.90;;;;;;6224430;22;19998;-93
2023/07/25 08:54:11;;;;;;;1.65;0.30;;;18.40;99.90;;;;;;6223886;22;20082;-92
2023/07/25 08:56:38;;;;;;;2.47;0.22;;;18.50;99.90;;;;;;6224352;22;20018;-92
2023/07/25 08:59:05;;;;;;;1.92;0.40;;;19.40;99.90;;;;;;6249607;22;20530;-93
2023/07/25 09:01:31;;;;;;;1.67;0.50;;;20.00;99.90;;;;;;6200414;22;20497;-93
2023/07/25 09:03:59;;;;;;;4.00;0.70;;;20.40;99.90;;;;;;6199128;22;20023;-94
2023/07/25 09:06:24;;;;;;;2.45;0.40;;;20.60;99.90;;;;;;6223545;22;20012;-94
2023/07/25 09:08:50;;;;;;;3.80;0.60;;;20.70;99.90;;;;;;6199724;22;20328;-96
2023/07/25 09:11:19;;;;;;;3.25;0.45;;;20.10;99.90;;;;;;6200080;22;20090;-94
2023/07/25 09:13:45;;;;;;;1.67;0.22;;;19.40;99.90;;;;;;6248694;22;20454;-94
2023/07/25 09:16:11;;;;;;;1.60;0.30;;;19.20;99.90;;;;;;6224613;22;20016;-95
2023/07/25 09:18:37;;;;;;;3.75;0.43;;;19.00;99.90;;;;;;6199211;22;20018;-95
2023/07/25 09:21:03;;;;;;;2.15;0.40;;;18.70;99.90;;;;;;6198765;22;20055;-94
2023/07/25 09:23:29;;;;;;;1.73;0.50;;;18.60;99.90;;;;;;6248986;22;20016;-93
2023/07/25 09:26:06;;;;;;;1.75;0.43;;;18.70;99.90;;;;;;6224611;22;20095;-93
2023/07/25 09:28:32;;;;;;;;;;;18.90;99.90;;;;;;6224998;22;20016;-94
2023/07/25 09:31:05;;;;;;;4.63;1.23;;;19.10;99.90;;;;;;6246253;22;19915;-94
2023/07/25 09:33:31;;;;;;;1.45;0.50;;;18.90;99.90;;;;;;6247666;22;20375;-93
2023/07/25 09:35:58;;;;;;;2.22;0.45;;;18.70;99.90;;;;;;6197794;22;20015;-90
2023/07/25 09:38:23;;;;;;;;;;;18.30;99.90;;;;;;6249287;22;20055;-91
2023/07/25 09:40:49;;;;;;;1.75;0.40;;;18.10;99.90;;;;;;6249220;22;19949;-89
2023/07/25 09:43:26;;;;;;;1.83;0.40;;;18.30;99.90;;;;;;6222724;22;20024;-91
2023/07/25 09:45:53;;;;;;;1.98;0.40;;;18.50;99.90;;;;;;6247648;22;20016;-89
2023/07/25 09:48:19;;;;;;;3.35;0.47;;;18.40;99.90;;;;;;6247928;22;20015;-90
2023/07/25 09:50:45;;;;;;;3.00;0.80;;;18.20;99.90;;;;;;6209977;22;20062;-91
2023/07/25 09:53:13;;;;;;;2.78;0.57;;;18.00;99.90;;;;;;6199178;23;20341;-90
2023/07/25 09:55:42;;;;;;;3.58;0.50;;;17.90;99.90;;;;;;6167942;23;20020;-90
2023/07/25 09:58:08;;;;;;;3.25;0.60;;;17.80;99.90;;;;;;6217728;23;20399;-86
2023/07/25 10:00:34;;;;;;;1.95;0.60;;;17.90;99.90;;;;;;6242269;23;20155;-87
2023/07/25 10:02:59;;;;;;;4.13;0.65;;;18.00;99.90;;;;;;6192490;23;20063;-89
2023/07/25 10:05:26;;;;;;;2.28;0.50;;;18.20;99.90;;;;;;6194811;22;20096;-89
2023/07/25 10:07:59;;;;;;;3.90;0.50;;;18.20;99.90;;;;;;6222792;22;20015;-89
2023/07/25 10:10:26;;;;;;;3.10;0.63;;;18.20;99.90;;;;;;6197873;22;20030;-91
2023/07/25 10:12:55;;;;;;;1.63;0.40;;;18.10;99.90;;;;;;6248683;22;20041;-90
2023/07/25 10:18:54;;;;;;;3.33;0.60;;;17.70;99.90;;;;;;6272555;22;20022;-88
2023/07/25 10:21:29;;;;;;;2.67;0.47;;;17.60;99.90;;;;;;6223042;22;20050;-90
2023/07/25 10:24:01;;;;;;;2.05;0.50;;;18.00;99.90;;;;;;6224180;22;20022;-91
2023/07/25 10:26:27;;;;;;;1.40;0.50;;;18.10;99.90;;;;;;6198982;22;20688;-90
2023/07/25 10:28:53;;;;;;;1.38;0.50;;;18.00;99.90;;;;;;6248633;22;20011;-89
2023/07/25 10:31:23;;;;;;;1.95;0.50;;;18.30;99.90;;;;;;6222780;22;20018;-89
2023/07/25 10:33:58;;;;;;;3.90;0.85;;;18.10;99.90;;;;;;6199335;22;20008;-91
2023/07/25 10:36:25;;;;;;;5.75;0.75;;;17.90;99.90;;;;;;6273846;22;20024;-89
2023/07/25 10:38:52;;;;;;;1.42;0.57;;;17.80;99.90;;;;;;6222884;22;20091;-90
2023/07/25 10:41:21;;;;;;;1.50;0.45;;;17.80;99.90;;;;;;6249439;22;20077;-90
2023/07/25 10:43:52;;;;;;;2.67;0.90;;;17.70;99.90;;;;;;6223588;22;20011;-90
2023/07/25 10:46:45;;;;;;;2.30;0.60;;;17.80;99.90;;;;;;6250669;22;20071;-90
2023/07/25 10:49:17;;;;;;;2.83;0.65;;;18.10;99.90;;;;;;6205551;22;20069;-91
2023/07/25 10:51:50;;;;;;;2.42;0.60;;;18.30;99.90;;;;;;6250188;22;20012;-91
2023/07/25 10:54:24;;;;;;;2.17;0.50;;;18.00;99.90;;;;;;6250461;22;20090;-90
2023/07/25 10:57:24;;;;;;;2.42;0.55;;;17.90;99.90;;;;;;6224664;22;20019;-88
2023/07/25 11:00:01;;;;;;;2.63;0.50;;;17.70;99.90;;;;;;6185885;22;20019;-90
2023/07/25 11:02:34;;;;;;;1.80;0.53;;;17.80;99.90;;;;;;6250012;22;20019;-90
2023/07/25 11:05:12;;;;;;;1.60;0.60;;;17.90;99.90;;;;;;6250464;22;20454;-91
2023/07/25 11:07:38;;;;;;;;;;;18.10;99.90;;;;;;6225254;22;20370;-90
2023/07/25 11:10:04;;;;;;;2.20;0.50;;;18.20;99.90;;;;;;6225667;22;19950;-88
2023/07/25 11:12:31;;;;;;;2.67;0.47;;;18.30;99.90;;;;;;6198348;22;20014;-91
2023/07/25 11:14:57;;;;;;;3.13;0.63;;;18.20;99.90;;;;;;6275543;22;20019;-91
2023/07/25 11:17:27;;;;;;;3.15;0.50;;;18.10;99.90;;;;;;6274874;22;20008;-89
2023/07/25 11:19:53;;;;;;;2.65;0.60;;;17.90;99.90;;;;;;6200550;22;20073;-91
2023/07/25 11:22:19;;;;;;;2.78;0.50;;;17.70;99.90;;;;;;6224451;22;20427;-89
2023/07/25 11:24:47;;;;;;;3.13;0.73;;;17.60;99.90;;;;;;6249608;22;20030;-92
2023/07/25 11:27:14;;;;;;;1.88;0.50;;;17.50;99.90;;;;;;6250477;22;20489;-90
2023/07/25 11:29:43;;;;;;;1.67;0.70;;;17.60;99.90;;;;;;6275735;22;20074;-91
2023/07/25 11:32:09;;;;;;;2.20;0.40;;;17.60;99.90;;;;;;6224937;22;20012;-91
2023/07/25 11:34:35;;;;;;;3.65;0.60;;;17.70;99.90;;;;;;6249719;22;20054;-93
2023/07/25 11:37:07;;;;;;;3.85;0.90;;;17.90;99.90;;;;;;6249749;22;20085;-91
2023/07/25 11:39:33;;;;;;;2.75;0.50;;;18.20;99.90;;;;;;6226617;22;20054;-88
2023/07/25 11:41:59;;;;;;;1.60;0.50;;;18.20;99.90;;;;;;6224320;22;20012;-91
2023/07/25 11:44:24;;;;;;;1.90;0.47;;;18.10;99.90;;;;;;6249666;22;20023;-91
2023/07/25 11:46:53;;;;;;;2.40;0.50;;;18.20;99.90;;;;;;6199366;22;20012;-91
2023/07/25 11:49:20;;;;;;;1.55;0.50;;;18.10;99.90;;;;;;6250113;22;20040;-90
2023/07/25 11:51:47;;;;;;;3.13;0.60;;;18.30;99.90;;;;;;6174292;22;20087;-90
2023/07/25 11:54:15;;;;;;;1.85;0.43;;;18.30;99.90;;;;;;6200610;22;20020;-91
2023/07/25 11:56:41;;;;;;;1.60;0.43;;;18.10;99.90;;;;;;6200035;22;20023;-91
2023/07/25 11:59:12;;;;;;;2.35;0.50;;;18.00;99.90;;;;;;6224926;22;20008;-91
2023/07/25 12:01:38;;;;;;;2.40;0.55;;;17.80;99.90;;;;;;6249427;22;20019;-90
2023/07/25 12:04:17;;;;;;;1.75;0.57;;;17.70;99.90;;;;;;6247289;22;20731;-90
2023/07/25 12:06:43;;;;;;;2.88;0.35;;;17.90;99.90;;;;;;6249321;22;20012;-90
2023/07/25 12:09:09;;;;;;;1.13;0.32;;;18.00;99.90;;;;;;6221245;22;20338;-91
2023/07/25 12:11:44;;;;;;;2.20;0.40;;;17.90;99.90;;;;;;6224744;22;20015;-92
2023/07/25 12:14:11;;;;;;;1.27;0.35;;;17.90;99.90;;;;;;6199572;22;20007;-91
2023/07/25 12:16:38;;;;;;;1.48;0.52;;;17.80;99.90;;;;;;6220640;22;20331;-90
2023/07/25 12:19:14;;;;;;;1.58;0.40;;;17.80;99.90;;;;;;6225151;22;20047;-90
2023/07/25 12:21:44;;;;;;;1.15;0.40;;;17.90;99.90;;;;;;6243214;22;20023;-91
2023/07/25 12:24:38;;;;;;;1.25;0.40;;;17.90;99.90;;;;;;6248403;22;20313;-90
2023/07/25 12:27:14;;;;;;;0.55;0.25;;;17.90;99.90;;;;;;6248338;22;20034;-90
2023/07/25 12:29:40;;;;;;;1.23;0.30;;;18.00;99.90;;;;;;6226417;22;20054;-91
2023/07/25 12:32:06;;;;;;;1.00;0.35;;;18.10;99.90;;;;;;6249469;22;20308;-90
2023/07/25 12:34:31;;;;;;;1.20;0.47;;;18.10;99.90;;;;;;6225108;22;20004;-89
2023/07/25 12:37:00;;;;;;;3.00;0.45;;;18.10;99.90;;;;;;6223591;22;20118;-90
2023/07/25 12:39:26;;;;;;;1.38;0.35;;;18.10;99.90;;;;;;6200299;22;20015;-90
2023/07/25 12:41:52;;;;;;;2.20;0.40;;;18.10;99.90;;;;;;6199216;22;20091;-89
2023/07/25 12:44:18;;;;;;;1.42;0.50;;;18.10;99.90;;;;;;6224198;22;20046;-88
2023/07/25 12:46:47;;;;;;;1.50;0.50;;;18.10;99.90;;;;;;6206055;23;20019;-89
2023/07/25 12:49:15;;;;;;;1.33;0.40;;;18.20;99.90;;;;;;6242754;22;20015;-92
2023/07/25 12:51:41;;;;;;;2.28;0.30;;;17.90;99.90;;;;;;6198051;22;20012;-90